sensor_id;sensor_type;location;lat;lon;timestamp;P1;durP1;ratioP1;P2;durP2;ratioP2
76818;SDS011;65772;51.096;17.006;2023-05-27T00:02:24;17.30;;;4.30;;
76818;SDS011;65772;51.096;17.006;2023-05-27T00:04:55;18.90;;;4.10;;
76818;SDS011;65772;51.096;17.006;2023-05-27T00:07:26;11.40;;;3.70;;
76818;SDS011;65772;51.096;17.006;2023-05-27T00:09:56;15.60;;;4.30;;
76818;SDS011;65772;51.096;17.006;2023-05-27T00:12:27;16.10;;;3.90;;
76818;SDS011;65772;51.096;17.006;2023-05-27T00:14:57;13.30;;;4.00;;
76818;SDS011;65772;51.096;17.006;2023-05-27T00:17:28;14.90;;;3.40;;
76818;SDS011;65772;51.096;17.006;2023-05-27T00:19:59;16.60;;;3.60;;
76818;SDS011;65772;51.096;17.006;2023-05-27T00:22:35;16.70;;;4.60;;
76818;SDS011;65772;51.096;17.006;2023-05-27T00:25:06;11.80;;;3.70;;
76818;SDS011;65772;51.096;17.006;2023-05-27T00:27:37;15.70;;;4.00;;
76818;SDS011;65772;51.096;17.006;2023-05-27T00:30:09;15.40;;;3.90;;
76818;SDS011;65772;51.096;17.006;2023-05-27T00:32:40;16.10;;;3.70;;
76818;SDS011;65772;51.096;17.006;2023-05-27T00:35:10;15.90;;;3.90;;
76818;SDS011;65772;51.096;17.006;2023-05-27T00:37:41;12.80;;;3.60;;
76818;SDS011;65772;51.096;17.006;2023-05-27T00:40:12;14.70;;;3.70;;
76818;SDS011;65772;51.096;17.006;2023-05-27T00:42:47;13.20;;;3.80;;
76818;SDS011;65772;51.096;17.006;2023-05-27T00:45:18;13.50;;;3.60;;
76818;SDS011;65772;51.096;17.006;2023-05-27T00:47:48;15.70;;;3.80;;
76818;SDS011;65772;51.096;17.006;2023-05-27T00:50:20;12.20;;;4.30;;
76818;SDS011;65772;51.096;17.006;2023-05-27T00:56:44;15.90;;;3.80;;
76818;SDS011;65772;51.096;17.006;2023-05-27T00:59:15;11.50;;;3.50;;
76818;SDS011;65772;51.096;17.006;2023-05-27T01:01:46;16.40;;;3.70;;
76818;SDS011;65772;51.096;17.006;2023-05-27T01:04:17;12.60;;;3.50;;
76818;SDS011;65772;51.096;17.006;2023-05-27T01:06:51;13.40;;;3.50;;
76818;SDS011;65772;51.096;17.006;2023-05-27T01:09:34;13.10;;;3.70;;
76818;SDS011;65772;51.096;17.006;2023-05-27T01:12:10;14.50;;;3.80;;
76818;SDS011;65772;51.096;17.006;2023-05-27T01:14:47;17.00;;;3.70;;
76818;SDS011;65772;51.096;17.006;2023-05-27T01:17:20;19.20;;;3.90;;
76818;SDS011;65772;51.096;17.006;2023-05-27T01:19:54;10.50;;;3.10;;
76818;SDS011;65772;51.096;17.006;2023-05-27T01:22:27;14.40;;;3.30;;
76818;SDS011;65772;51.096;17.006;2023-05-27T01:24:58;12.40;;;3.50;;
76818;SDS011;65772;51.096;17.006;2023-05-27T01:27:29;14.40;;;3.50;;
76818;SDS011;65772;51.096;17.006;2023-05-27T01:30:00;14.50;;;4.20;;
76818;SDS011;65772;51.096;17.006;2023-05-27T01:32:32;15.80;;;4.00;;
76818;SDS011;65772;51.096;17.006;2023-05-27T01:35:16;15.60;;;3.70;;
76818;SDS011;65772;51.096;17.006;2023-05-27T01:37:51;16.40;;;4.10;;
76818;SDS011;65772;51.096;17.006;2023-05-27T01:40:25;16.10;;;4.10;;
76818;SDS011;65772;51.096;17.006;2023-05-27T01:42:57;17.00;;;4.10;;
76818;SDS011;65772;51.096;17.006;2023-05-27T01:45:29;14.00;;;3.50;;
76818;SDS011;65772;51.096;17.006;2023-05-27T01:48:03;16.60;;;4.30;;
76818;SDS011;65772;51.096;17.006;2023-05-27T01:50:34;12.40;;;3.70;;
76818;SDS011;65772;51.096;17.006;2023-05-27T01:53:06;15.20;;;4.60;;
76818;SDS011;65772;51.096;17.006;2023-05-27T01:55:36;12.00;;;3.50;;
76818;SDS011;65772;51.096;17.006;2023-05-27T01:58:07;16.80;;;4.00;;
76818;SDS011;65772;51.096;17.006;2023-05-27T02:00:38;15.20;;;3.90;;
76818;SDS011;65772;51.096;17.006;2023-05-27T02:03:08;12.80;;;3.70;;
76818;SDS011;65772;51.096;17.006;2023-05-27T02:05:39;12.10;;;4.20;;
76818;SDS011;65772;51.096;17.006;2023-05-27T02:08:10;15.90;;;4.30;;
76818;SDS011;65772;51.096;17.006;2023-05-27T02:10:41;17.90;;;3.70;;
76818;SDS011;65772;51.096;17.006;2023-05-27T02:13:11;16.60;;;4.20;;
76818;SDS011;65772;51.096;17.006;2023-05-27T02:15:42;15.40;;;3.80;;
76818;SDS011;65772;51.096;17.006;2023-05-27T02:18:13;14.40;;;3.80;;
76818;SDS011;65772;51.096;17.006;2023-05-27T02:20:43;14.20;;;3.70;;
76818;SDS011;65772;51.096;17.006;2023-05-27T02:23:14;13.80;;;3.70;;
76818;SDS011;65772;51.096;17.006;2023-05-27T02:25:45;14.30;;;3.60;;
76818;SDS011;65772;51.096;17.006;2023-05-27T02:28:17;14.30;;;4.10;;
76818;SDS011;65772;51.096;17.006;2023-05-27T02:30:48;13.50;;;3.90;;
76818;SDS011;65772;51.096;17.006;2023-05-27T02:33:18;10.60;;;3.40;;
76818;SDS011;65772;51.096;17.006;2023-05-27T02:35:49;14.20;;;3.60;;
76818;SDS011;65772;51.096;17.006;2023-05-27T02:38:20;13.50;;;4.10;;
76818;SDS011;65772;51.096;17.006;2023-05-27T02:40:51;13.40;;;3.90;;
76818;SDS011;65772;51.096;17.006;2023-05-27T02:43:21;8.50;;;3.30;;
76818;SDS011;65772;51.096;17.006;2023-05-27T02:45:52;14.30;;;3.90;;
76818;SDS011;65772;51.096;17.006;2023-05-27T02:48:23;14.00;;;4.30;;
76818;SDS011;65772;51.096;17.006;2023-05-27T02:50:54;18.30;;;3.90;;
76818;SDS011;65772;51.096;17.006;2023-05-27T02:53:24;13.00;;;3.70;;
76818;SDS011;65772;51.096;17.006;2023-05-27T02:55:55;11.30;;;3.50;;
76818;SDS011;65772;51.096;17.006;2023-05-27T02:58:26;13.40;;;4.20;;
76818;SDS011;65772;51.096;17.006;2023-05-27T03:00:56;11.60;;;3.80;;
76818;SDS011;65772;51.096;17.006;2023-05-27T03:03:27;12.60;;;4.60;;
76818;SDS011;65772;51.096;17.006;2023-05-27T03:05:58;16.60;;;5.10;;
76818;SDS011;65772;51.096;17.006;2023-05-27T03:08:29;10.70;;;4.20;;
76818;SDS011;65772;51.096;17.006;2023-05-27T03:11:00;15.10;;;3.80;;
76818;SDS011;65772;51.096;17.006;2023-05-27T03:13:31;12.70;;;3.60;;
76818;SDS011;65772;51.096;17.006;2023-05-27T03:16:02;19.50;;;4.40;;
76818;SDS011;65772;51.096;17.006;2023-05-27T03:18:33;17.80;;;4.50;;
76818;SDS011;65772;51.096;17.006;2023-05-27T03:21:04;15.50;;;4.40;;
76818;SDS011;65772;51.096;17.006;2023-05-27T03:23:35;12.40;;;4.20;;
76818;SDS011;65772;51.096;17.006;2023-05-27T03:26:06;14.30;;;4.30;;
76818;SDS011;65772;51.096;17.006;2023-05-27T03:28:36;12.60;;;4.30;;
76818;SDS011;65772;51.096;17.006;2023-05-27T03:31:07;16.90;;;4.40;;
76818;SDS011;65772;51.096;17.006;2023-05-27T03:34:01;14.20;;;4.70;;
76818;SDS011;65772;51.096;17.006;2023-05-27T03:36:31;18.40;;;4.50;;
76818;SDS011;65772;51.096;17.006;2023-05-27T03:39:03;15.80;;;4.40;;
76818;SDS011;65772;51.096;17.006;2023-05-27T03:41:34;13.90;;;4.40;;
76818;SDS011;65772;51.096;17.006;2023-05-27T03:44:05;12.90;;;3.90;;
76818;SDS011;65772;51.096;17.006;2023-05-27T03:46:35;14.20;;;4.10;;
76818;SDS011;65772;51.096;17.006;2023-05-27T03:49:07;17.50;;;4.70;;
76818;SDS011;65772;51.096;17.006;2023-05-27T03:51:38;14.10;;;4.20;;
76818;SDS011;65772;51.096;17.006;2023-05-27T03:54:08;14.00;;;4.30;;
76818;SDS011;65772;51.096;17.006;2023-05-27T03:56:39;19.30;;;4.60;;
76818;SDS011;65772;51.096;17.006;2023-05-27T03:59:09;13.70;;;4.10;;
76818;SDS011;65772;51.096;17.006;2023-05-27T04:01:41;17.60;;;4.30;;
76818;SDS011;65772;51.096;17.006;2023-05-27T04:04:14;18.40;;;4.80;;
76818;SDS011;65772;51.096;17.006;2023-05-27T04:06:46;22.60;;;5.30;;
76818;SDS011;65772;51.096;17.006;2023-05-27T04:09:16;14.60;;;3.90;;
76818;SDS011;65772;51.096;17.006;2023-05-27T04:11:47;10.10;;;4.00;;
76818;SDS011;65772;51.096;17.006;2023-05-27T04:14:18;15.80;;;4.10;;
76818;SDS011;65772;51.096;17.006;2023-05-27T04:16:49;16.40;;;4.20;;
76818;SDS011;65772;51.096;17.006;2023-05-27T04:19:20;16.80;;;5.20;;
76818;SDS011;65772;51.096;17.006;2023-05-27T04:21:51;16.30;;;4.60;;
76818;SDS011;65772;51.096;17.006;2023-05-27T04:24:21;13.40;;;4.60;;
76818;SDS011;65772;51.096;17.006;2023-05-27T04:26:52;19.80;;;5.00;;
76818;SDS011;65772;51.096;17.006;2023-05-27T04:29:23;16.80;;;4.70;;
76818;SDS011;65772;51.096;17.006;2023-05-27T04:31:55;17.30;;;5.60;;
76818;SDS011;65772;51.096;17.006;2023-05-27T04:34:26;15.40;;;4.20;;
76818;SDS011;65772;51.096;17.006;2023-05-27T04:36:56;14.50;;;4.40;;
76818;SDS011;65772;51.096;17.006;2023-05-27T04:39:29;26.40;;;12.00;;
76818;SDS011;65772;51.096;17.006;2023-05-27T04:42:00;13.90;;;5.30;;
76818;SDS011;65772;51.096;17.006;2023-05-27T04:44:32;13.90;;;4.80;;
76818;SDS011;65772;51.096;17.006;2023-05-27T04:47:03;14.20;;;4.80;;
76818;SDS011;65772;51.096;17.006;2023-05-27T04:49:36;17.10;;;4.70;;
76818;SDS011;65772;51.096;17.006;2023-05-27T04:52:07;15.30;;;4.40;;
76818;SDS011;65772;51.096;17.006;2023-05-27T04:54:38;16.70;;;4.20;;
76818;SDS011;65772;51.096;17.006;2023-05-27T04:57:15;18.40;;;4.90;;
76818;SDS011;65772;51.096;17.006;2023-05-27T04:59:47;13.10;;;4.30;;
76818;SDS011;65772;51.096;17.006;2023-05-27T05:02:46;17.50;;;4.70;;
76818;SDS011;65772;51.096;17.006;2023-05-27T05:05:17;13.30;;;4.30;;
76818;SDS011;65772;51.096;17.006;2023-05-27T05:07:47;15.20;;;4.50;;
76818;SDS011;65772;51.096;17.006;2023-05-27T05:10:18;16.00;;;4.40;;
76818;SDS011;65772;51.096;17.006;2023-05-27T05:12:50;12.90;;;4.30;;
76818;SDS011;65772;51.096;17.006;2023-05-27T05:15:21;17.90;;;4.60;;
76818;SDS011;65772;51.096;17.006;2023-05-27T05:17:53;11.70;;;3.80;;
76818;SDS011;65772;51.096;17.006;2023-05-27T05:20:27;14.80;;;4.10;;
76818;SDS011;65772;51.096;17.006;2023-05-27T05:22:58;17.50;;;4.60;;
76818;SDS011;65772;51.096;17.006;2023-05-27T05:25:29;15.10;;;4.90;;
76818;SDS011;65772;51.096;17.006;2023-05-27T05:28:03;16.50;;;4.80;;
76818;SDS011;65772;51.096;17.006;2023-05-27T05:30:35;17.70;;;4.80;;
76818;SDS011;65772;51.096;17.006;2023-05-27T05:33:07;13.40;;;4.80;;
76818;SDS011;65772;51.096;17.006;2023-05-27T05:35:37;14.70;;;4.60;;
76818;SDS011;65772;51.096;17.006;2023-05-27T05:38:27;13.70;;;4.70;;
76818;SDS011;65772;51.096;17.006;2023-05-27T05:40:58;13.90;;;4.50;;
76818;SDS011;65772;51.096;17.006;2023-05-27T05:43:29;14.50;;;3.60;;
76818;SDS011;65772;51.096;17.006;2023-05-27T05:45:59;14.30;;;4.30;;
76818;SDS011;65772;51.096;17.006;2023-05-27T05:48:30;18.40;;;5.00;;
76818;SDS011;65772;51.096;17.006;2023-05-27T05:51:01;16.70;;;4.90;;
76818;SDS011;65772;51.096;17.006;2023-05-27T05:53:32;11.50;;;3.90;;
76818;SDS011;65772;51.096;17.006;2023-05-27T05:56:03;15.40;;;3.80;;
76818;SDS011;65772;51.096;17.006;2023-05-27T05:58:34;12.90;;;3.80;;
76818;SDS011;65772;51.096;17.006;2023-05-27T06:01:06;13.50;;;4.00;;
76818;SDS011;65772;51.096;17.006;2023-05-27T06:03:40;14.00;;;3.70;;
76818;SDS011;65772;51.096;17.006;2023-05-27T06:06:21;16.20;;;3.90;;
76818;SDS011;65772;51.096;17.006;2023-05-27T06:11:50;7.90;;;2.80;;
76818;SDS011;65772;51.096;17.006;2023-05-27T06:14:22;12.40;;;3.20;;
76818;SDS011;65772;51.096;17.006;2023-05-27T06:16:54;10.30;;;2.90;;
76818;SDS011;65772;51.096;17.006;2023-05-27T06:19:24;10.20;;;3.30;;
76818;SDS011;65772;51.096;17.006;2023-05-27T06:21:56;9.90;;;2.60;;
76818;SDS011;65772;51.096;17.006;2023-05-27T06:24:45;12.10;;;3.30;;
76818;SDS011;65772;51.096;17.006;2023-05-27T06:27:21;14.20;;;3.70;;
76818;SDS011;65772;51.096;17.006;2023-05-27T06:29:51;12.20;;;3.40;;
76818;SDS011;65772;51.096;17.006;2023-05-27T06:32:34;12.90;;;3.80;;
76818;SDS011;65772;51.096;17.006;2023-05-27T06:35:06;10.40;;;3.30;;
76818;SDS011;65772;51.096;17.006;2023-05-27T06:37:37;8.80;;;3.00;;
76818;SDS011;65772;51.096;17.006;2023-05-27T06:40:09;10.40;;;2.80;;
76818;SDS011;65772;51.096;17.006;2023-05-27T06:42:42;9.40;;;2.80;;
76818;SDS011;65772;51.096;17.006;2023-05-27T06:45:30;11.90;;;2.80;;
76818;SDS011;65772;51.096;17.006;2023-05-27T06:51:00;8.10;;;2.20;;
76818;SDS011;65772;51.096;17.006;2023-05-27T06:53:31;8.90;;;2.30;;
76818;SDS011;65772;51.096;17.006;2023-05-27T06:56:15;8.50;;;2.30;;
76818;SDS011;65772;51.096;17.006;2023-05-27T06:59:04;7.90;;;2.00;;
76818;SDS011;65772;51.096;17.006;2023-05-27T07:01:34;7.70;;;2.20;;
76818;SDS011;65772;51.096;17.006;2023-05-27T07:04:12;6.80;;;1.90;;
76818;SDS011;65772;51.096;17.006;2023-05-27T07:06:50;7.90;;;2.20;;
76818;SDS011;65772;51.096;17.006;2023-05-27T07:09:21;14.90;;;5.20;;
76818;SDS011;65772;51.096;17.006;2023-05-27T07:11:52;11.10;;;4.70;;
76818;SDS011;65772;51.096;17.006;2023-05-27T07:14:54;9.60;;;2.90;;
76818;SDS011;65772;51.096;17.006;2023-05-27T07:17:26;8.80;;;2.30;;
76818;SDS011;65772;51.096;17.006;2023-05-27T07:19:58;8.10;;;2.80;;
76818;SDS011;65772;51.096;17.006;2023-05-27T07:22:29;9.00;;;2.30;;
76818;SDS011;65772;51.096;17.006;2023-05-27T07:25:00;7.00;;;2.30;;
76818;SDS011;65772;51.096;17.006;2023-05-27T07:27:31;9.00;;;2.20;;
76818;SDS011;65772;51.096;17.006;2023-05-27T07:30:02;6.60;;;2.20;;
76818;SDS011;65772;51.096;17.006;2023-05-27T07:32:47;6.40;;;2.30;;
76818;SDS011;65772;51.096;17.006;2023-05-27T07:35:18;13.00;;;3.10;;
76818;SDS011;65772;51.096;17.006;2023-05-27T07:37:49;7.10;;;3.10;;
76818;SDS011;65772;51.096;17.006;2023-05-27T07:40:19;6.70;;;2.40;;
76818;SDS011;65772;51.096;17.006;2023-05-27T07:42:50;7.20;;;1.90;;
76818;SDS011;65772;51.096;17.006;2023-05-27T07:45:20;8.80;;;2.30;;
76818;SDS011;65772;51.096;17.006;2023-05-27T07:47:51;7.90;;;2.00;;
76818;SDS011;65772;51.096;17.006;2023-05-27T07:50:22;7.00;;;2.40;;
76818;SDS011;65772;51.096;17.006;2023-05-27T07:53:02;10.40;;;2.50;;
76818;SDS011;65772;51.096;17.006;2023-05-27T07:55:33;10.10;;;2.50;;
76818;SDS011;65772;51.096;17.006;2023-05-27T07:58:05;6.70;;;2.10;;
76818;SDS011;65772;51.096;17.006;2023-05-27T08:01:10;9.60;;;4.00;;
76818;SDS011;65772;51.096;17.006;2023-05-27T08:03:45;11.00;;;5.60;;
76818;SDS011;65772;51.096;17.006;2023-05-27T08:06:17;9.40;;;2.90;;
76818;SDS011;65772;51.096;17.006;2023-05-27T08:09:12;6.00;;;1.80;;
76818;SDS011;65772;51.096;17.006;2023-05-27T08:12:02;8.10;;;2.40;;
76818;SDS011;65772;51.096;17.006;2023-05-27T08:14:48;8.80;;;2.20;;
76818;SDS011;65772;51.096;17.006;2023-05-27T08:17:57;6.00;;;2.20;;
76818;SDS011;65772;51.096;17.006;2023-05-27T08:20:49;8.40;;;2.40;;
76818;SDS011;65772;51.096;17.006;2023-05-27T08:23:45;10.70;;;3.30;;
76818;SDS011;65772;51.096;17.006;2023-05-27T08:29:25;9.60;;;2.70;;
76818;SDS011;65772;51.096;17.006;2023-05-27T08:32:09;8.00;;;2.10;;
76818;SDS011;65772;51.096;17.006;2023-05-27T08:34:40;8.30;;;2.10;;
76818;SDS011;65772;51.096;17.006;2023-05-27T08:37:11;7.50;;;2.70;;
76818;SDS011;65772;51.096;17.006;2023-05-27T08:39:42;10.90;;;2.70;;
76818;SDS011;65772;51.096;17.006;2023-05-27T08:42:24;8.40;;;2.50;;
76818;SDS011;65772;51.096;17.006;2023-05-27T08:44:55;12.50;;;4.60;;
76818;SDS011;65772;51.096;17.006;2023-05-27T08:47:26;18.30;;;8.40;;
76818;SDS011;65772;51.096;17.006;2023-05-27T08:49:59;12.00;;;5.20;;
76818;SDS011;65772;51.096;17.006;2023-05-27T08:52:29;8.40;;;2.30;;
76818;SDS011;65772;51.096;17.006;2023-05-27T08:55:01;8.90;;;2.50;;
76818;SDS011;65772;51.096;17.006;2023-05-27T08:57:33;8.30;;;2.50;;
76818;SDS011;65772;51.096;17.006;2023-05-27T09:00:06;6.80;;;2.40;;
76818;SDS011;65772;51.096;17.006;2023-05-27T09:02:42;8.50;;;2.30;;
76818;SDS011;65772;51.096;17.006;2023-05-27T09:05:13;10.40;;;2.80;;
76818;SDS011;65772;51.096;17.006;2023-05-27T09:07:45;10.90;;;2.40;;
76818;SDS011;65772;51.096;17.006;2023-05-27T09:10:16;11.60;;;2.80;;
76818;SDS011;65772;51.096;17.006;2023-05-27T09:12:47;8.10;;;2.70;;
76818;SDS011;65772;51.096;17.006;2023-05-27T09:15:19;13.90;;;2.80;;
76818;SDS011;65772;51.096;17.006;2023-05-27T09:17:52;7.60;;;2.60;;
76818;SDS011;65772;51.096;17.006;2023-05-27T09:20:25;12.40;;;3.00;;
76818;SDS011;65772;51.096;17.006;2023-05-27T09:22:57;6.60;;;2.30;;
76818;SDS011;65772;51.096;17.006;2023-05-27T09:25:29;10.00;;;2.70;;
76818;SDS011;65772;51.096;17.006;2023-05-27T09:27:59;9.30;;;2.90;;
76818;SDS011;65772;51.096;17.006;2023-05-27T09:30:35;12.60;;;2.60;;
76818;SDS011;65772;51.096;17.006;2023-05-27T09:33:06;18.10;;;8.60;;
76818;SDS011;65772;51.096;17.006;2023-05-27T09:35:38;24.80;;;10.40;;
76818;SDS011;65772;51.096;17.006;2023-05-27T09:38:10;17.90;;;4.20;;
76818;SDS011;65772;51.096;17.006;2023-05-27T09:40:43;11.40;;;2.70;;
76818;SDS011;65772;51.096;17.006;2023-05-27T09:43:14;16.30;;;3.00;;
76818;SDS011;65772;51.096;17.006;2023-05-27T09:45:45;9.40;;;2.80;;
76818;SDS011;65772;51.096;17.006;2023-05-27T09:48:16;9.20;;;2.70;;
76818;SDS011;65772;51.096;17.006;2023-05-27T09:50:49;10.60;;;2.90;;
76818;SDS011;65772;51.096;17.006;2023-05-27T09:53:22;10.50;;;2.90;;
76818;SDS011;65772;51.096;17.006;2023-05-27T09:55:54;8.00;;;2.30;;
76818;SDS011;65772;51.096;17.006;2023-05-27T09:58:25;9.10;;;2.30;;
76818;SDS011;65772;51.096;17.006;2023-05-27T10:00:56;11.30;;;2.60;;
76818;SDS011;65772;51.096;17.006;2023-05-27T10:03:27;10.20;;;2.90;;
76818;SDS011;65772;51.096;17.006;2023-05-27T10:05:58;17.90;;;8.70;;
76818;SDS011;65772;51.096;17.006;2023-05-27T10:08:30;9.80;;;4.10;;
76818;SDS011;65772;51.096;17.006;2023-05-27T10:11:01;9.00;;;3.30;;
76818;SDS011;65772;51.096;17.006;2023-05-27T10:13:31;12.70;;;4.00;;
76818;SDS011;65772;51.096;17.006;2023-05-27T10:16:03;10.10;;;3.70;;
76818;SDS011;65772;51.096;17.006;2023-05-27T10:18:33;11.60;;;4.30;;
76818;SDS011;65772;51.096;17.006;2023-05-27T10:21:17;9.10;;;2.90;;
76818;SDS011;65772;51.096;17.006;2023-05-27T10:23:57;7.50;;;2.90;;
76818;SDS011;65772;51.096;17.006;2023-05-27T10:26:32;19.60;;;5.60;;
76818;SDS011;65772;51.096;17.006;2023-05-27T10:29:07;21.40;;;5.70;;
76818;SDS011;65772;51.096;17.006;2023-05-27T10:31:44;16.10;;;4.10;;
76818;SDS011;65772;51.096;17.006;2023-05-27T10:34:19;12.90;;;3.40;;
76818;SDS011;65772;51.096;17.006;2023-05-27T10:36:59;11.70;;;3.60;;
76818;SDS011;65772;51.096;17.006;2023-05-27T10:39:29;12.00;;;3.40;;
76818;SDS011;65772;51.096;17.006;2023-05-27T10:42:00;11.70;;;3.10;;
76818;SDS011;65772;51.096;17.006;2023-05-27T10:44:31;12.40;;;5.10;;
76818;SDS011;65772;51.096;17.006;2023-05-27T10:47:03;13.20;;;4.60;;
76818;SDS011;65772;51.096;17.006;2023-05-27T10:49:44;12.10;;;3.00;;
76818;SDS011;65772;51.096;17.006;2023-05-27T10:52:16;13.40;;;6.30;;
76818;SDS011;65772;51.096;17.006;2023-05-27T10:54:47;14.30;;;5.10;;
76818;SDS011;65772;51.096;17.006;2023-05-27T10:57:20;10.80;;;3.20;;
76818;SDS011;65772;51.096;17.006;2023-05-27T10:59:52;6.70;;;2.40;;
76818;SDS011;65772;51.096;17.006;2023-05-27T11:02:28;10.10;;;3.50;;
76818;SDS011;65772;51.096;17.006;2023-05-27T11:05:00;8.50;;;2.80;;
76818;SDS011;65772;51.096;17.006;2023-05-27T11:07:37;10.40;;;3.70;;
76818;SDS011;65772;51.096;17.006;2023-05-27T11:10:09;7.50;;;3.40;;
76818;SDS011;65772;51.096;17.006;2023-05-27T11:12:43;7.50;;;2.90;;
76818;SDS011;65772;51.096;17.006;2023-05-27T11:15:16;6.30;;;2.70;;
76818;SDS011;65772;51.096;17.006;2023-05-27T11:17:48;6.30;;;3.00;;
76818;SDS011;65772;51.096;17.006;2023-05-27T11:22:51;12.00;;;2.50;;
76818;SDS011;65772;51.096;17.006;2023-05-27T11:25:22;7.20;;;2.50;;
76818;SDS011;65772;51.096;17.006;2023-05-27T11:27:52;5.60;;;2.10;;
76818;SDS011;65772;51.096;17.006;2023-05-27T11:30:24;5.10;;;2.00;;
76818;SDS011;65772;51.096;17.006;2023-05-27T11:33:01;6.50;;;2.00;;
76818;SDS011;65772;51.096;17.006;2023-05-27T11:35:32;6.10;;;2.10;;
76818;SDS011;65772;51.096;17.006;2023-05-27T11:38:03;8.20;;;3.70;;
76818;SDS011;65772;51.096;17.006;2023-05-27T11:40:35;6.30;;;1.90;;
76818;SDS011;65772;51.096;17.006;2023-05-27T11:43:06;7.60;;;2.70;;
76818;SDS011;65772;51.096;17.006;2023-05-27T11:45:37;8.50;;;2.80;;
76818;SDS011;65772;51.096;17.006;2023-05-27T11:48:08;5.80;;;2.20;;
76818;SDS011;65772;51.096;17.006;2023-05-27T11:50:39;5.30;;;2.10;;
76818;SDS011;65772;51.096;17.006;2023-05-27T11:53:14;4.70;;;1.70;;
76818;SDS011;65772;51.096;17.006;2023-05-27T11:55:46;5.90;;;2.00;;
76818;SDS011;65772;51.096;17.006;2023-05-27T11:58:17;5.70;;;1.90;;
76818;SDS011;65772;51.096;17.006;2023-05-27T12:00:48;7.40;;;2.90;;
76818;SDS011;65772;51.096;17.006;2023-05-27T12:03:18;5.20;;;2.00;;
76818;SDS011;65772;51.096;17.006;2023-05-27T12:05:50;7.10;;;2.10;;
76818;SDS011;65772;51.096;17.006;2023-05-27T12:08:21;5.10;;;2.00;;
76818;SDS011;65772;51.096;17.006;2023-05-27T12:10:51;5.50;;;2.10;;
76818;SDS011;65772;51.096;17.006;2023-05-27T12:13:22;4.10;;;1.60;;
76818;SDS011;65772;51.096;17.006;2023-05-27T12:15:53;6.70;;;2.00;;
76818;SDS011;65772;51.096;17.006;2023-05-27T12:18:24;10.20;;;6.00;;
76818;SDS011;65772;51.096;17.006;2023-05-27T12:20:55;13.40;;;8.00;;
76818;SDS011;65772;51.096;17.006;2023-05-27T12:23:26;6.10;;;3.10;;
76818;SDS011;65772;51.096;17.006;2023-05-27T12:25:56;7.50;;;2.00;;
76818;SDS011;65772;51.096;17.006;2023-05-27T12:28:27;7.10;;;1.90;;
76818;SDS011;65772;51.096;17.006;2023-05-27T12:30:58;5.20;;;2.00;;
76818;SDS011;65772;51.096;17.006;2023-05-27T12:33:29;21.00;;;13.70;;
76818;SDS011;65772;51.096;17.006;2023-05-27T12:36:00;14.80;;;8.40;;
76818;SDS011;65772;51.096;17.006;2023-05-27T12:38:33;6.60;;;2.70;;
76818;SDS011;65772;51.096;17.006;2023-05-27T12:41:03;6.40;;;2.30;;
76818;SDS011;65772;51.096;17.006;2023-05-27T12:43:34;4.30;;;1.90;;
76818;SDS011;65772;51.096;17.006;2023-05-27T12:46:05;4.30;;;1.70;;
76818;SDS011;65772;51.096;17.006;2023-05-27T12:48:35;3.80;;;1.90;;
76818;SDS011;65772;51.096;17.006;2023-05-27T12:51:06;6.60;;;1.90;;
76818;SDS011;65772;51.096;17.006;2023-05-27T12:53:36;5.00;;;1.90;;
76818;SDS011;65772;51.096;17.006;2023-05-27T12:56:07;20.60;;;13.40;;
76818;SDS011;65772;51.096;17.006;2023-05-27T12:58:38;10.90;;;5.60;;
76818;SDS011;65772;51.096;17.006;2023-05-27T13:01:09;10.40;;;2.50;;
76818;SDS011;65772;51.096;17.006;2023-05-27T13:03:40;5.40;;;2.00;;
76818;SDS011;65772;51.096;17.006;2023-05-27T13:06:11;8.30;;;2.20;;
76818;SDS011;65772;51.096;17.006;2023-05-27T13:08:42;6.30;;;2.20;;
76818;SDS011;65772;51.096;17.006;2023-05-27T13:11:12;6.10;;;2.20;;
76818;SDS011;65772;51.096;17.006;2023-05-27T13:13:44;4.60;;;2.30;;
76818;SDS011;65772;51.096;17.006;2023-05-27T13:16:15;7.50;;;3.20;;
76818;SDS011;65772;51.096;17.006;2023-05-27T13:18:45;6.60;;;3.30;;
76818;SDS011;65772;51.096;17.006;2023-05-27T13:21:16;13.00;;;7.70;;
76818;SDS011;65772;51.096;17.006;2023-05-27T13:23:47;7.70;;;2.50;;
76818;SDS011;65772;51.096;17.006;2023-05-27T13:26:17;5.10;;;1.90;;
76818;SDS011;65772;51.096;17.006;2023-05-27T13:28:49;6.50;;;1.90;;
76818;SDS011;65772;51.096;17.006;2023-05-27T13:31:20;4.00;;;1.70;;
76818;SDS011;65772;51.096;17.006;2023-05-27T13:33:51;4.40;;;1.70;;
76818;SDS011;65772;51.096;17.006;2023-05-27T13:36:21;5.40;;;1.90;;
76818;SDS011;65772;51.096;17.006;2023-05-27T13:38:52;8.10;;;2.30;;
76818;SDS011;65772;51.096;17.006;2023-05-27T13:41:22;7.30;;;2.30;;
76818;SDS011;65772;51.096;17.006;2023-05-27T13:43:53;5.60;;;1.80;;
76818;SDS011;65772;51.096;17.006;2023-05-27T13:46:23;5.00;;;1.80;;
76818;SDS011;65772;51.096;17.006;2023-05-27T13:48:54;4.80;;;1.60;;
76818;SDS011;65772;51.096;17.006;2023-05-27T13:51:25;8.20;;;1.80;;
76818;SDS011;65772;51.096;17.006;2023-05-27T13:53:58;5.30;;;1.80;;
76818;SDS011;65772;51.096;17.006;2023-05-27T13:56:29;4.90;;;1.70;;
76818;SDS011;65772;51.096;17.006;2023-05-27T13:59:00;5.20;;;1.90;;
76818;SDS011;65772;51.096;17.006;2023-05-27T14:01:33;6.10;;;1.90;;
76818;SDS011;65772;51.096;17.006;2023-05-27T14:04:04;3.00;;;1.60;;
76818;SDS011;65772;51.096;17.006;2023-05-27T14:06:34;5.60;;;1.80;;
76818;SDS011;65772;51.096;17.006;2023-05-27T14:09:05;4.70;;;1.60;;
76818;SDS011;65772;51.096;17.006;2023-05-27T14:11:35;5.60;;;2.00;;
76818;SDS011;65772;51.096;17.006;2023-05-27T14:14:06;3.90;;;1.60;;
76818;SDS011;65772;51.096;17.006;2023-05-27T14:16:37;4.30;;;1.60;;
76818;SDS011;65772;51.096;17.006;2023-05-27T14:19:08;4.60;;;1.70;;
76818;SDS011;65772;51.096;17.006;2023-05-27T14:21:38;3.70;;;1.60;;
76818;SDS011;65772;51.096;17.006;2023-05-27T14:24:10;3.80;;;1.50;;
76818;SDS011;65772;51.096;17.006;2023-05-27T14:26:41;6.50;;;2.60;;
76818;SDS011;65772;51.096;17.006;2023-05-27T14:29:12;4.90;;;2.10;;
76818;SDS011;65772;51.096;17.006;2023-05-27T14:31:43;6.00;;;1.90;;
76818;SDS011;65772;51.096;17.006;2023-05-27T14:34:14;6.30;;;1.70;;
76818;SDS011;65772;51.096;17.006;2023-05-27T14:36:44;4.50;;;1.80;;
76818;SDS011;65772;51.096;17.006;2023-05-27T14:39:15;5.80;;;2.20;;
76818;SDS011;65772;51.096;17.006;2023-05-27T14:41:45;4.60;;;1.90;;
76818;SDS011;65772;51.096;17.006;2023-05-27T14:44:16;5.10;;;1.90;;
76818;SDS011;65772;51.096;17.006;2023-05-27T14:46:47;5.20;;;1.80;;
76818;SDS011;65772;51.096;17.006;2023-05-27T14:49:18;5.20;;;2.00;;
76818;SDS011;65772;51.096;17.006;2023-05-27T14:51:48;5.70;;;2.30;;
76818;SDS011;65772;51.096;17.006;2023-05-27T14:54:19;3.80;;;1.60;;
76818;SDS011;65772;51.096;17.006;2023-05-27T14:56:49;3.20;;;1.50;;
76818;SDS011;65772;51.096;17.006;2023-05-27T14:59:20;3.80;;;1.70;;
76818;SDS011;65772;51.096;17.006;2023-05-27T15:01:51;6.20;;;2.10;;
76818;SDS011;65772;51.096;17.006;2023-05-27T15:04:21;5.40;;;1.80;;
76818;SDS011;65772;51.096;17.006;2023-05-27T15:06:52;4.50;;;1.70;;
76818;SDS011;65772;51.096;17.006;2023-05-27T15:09:23;5.20;;;1.70;;
76818;SDS011;65772;51.096;17.006;2023-05-27T15:11:54;7.50;;;1.90;;
76818;SDS011;65772;51.096;17.006;2023-05-27T15:14:25;4.40;;;1.80;;